Time;durP1;ratioP1;P1;durP2;ratioP2;P2;SDS_P1;SDS_P2;PMS_P1;PMS_P2;Temp;Humidity;BMP_temperature;BMP_pressure;BME280_temperature;BME280_humidity;BME280_pressure;Samples;Min_cycle;Max_cycle;Signal;HPM_P1;HPM_P2
2023/09/07 00:02:14;;;;;;;0.03;0.03;;;;;;;16.32;71.44;98106.00;4987087;28;20489;-67
2023/09/07 00:04:43;;;;;;;0.03;0.03;;;;;;;16.25;71.69;98107.94;4985495;28;20555;-67
2023/09/07 00:07:11;;;;;;;0.20;0.20;;;;;;;16.27;71.58;98113.94;4993524;28;20065;-67
2023/09/07 00:09:38;;;;;;;0.10;0.10;;;;;;;16.33;71.21;98104.97;4992446;28;20122;-66
2023/09/07 00:12:07;;;;;;;0.40;0.40;;;;;;;16.26;71.42;98114.16;4985489;28;20398;-67
2023/09/07 00:14:35;;;;;;;0.50;0.50;;;;;;;16.19;71.52;98108.00;4991792;28;20038;-67
2023/09/07 00:17:04;;;;;;;0.10;0.10;;;;;;;16.06;71.82;98109.72;4986014;28;20528;-70
2023/09/07 00:19:33;;;;;;;0.13;0.13;;;;;;;16.04;72.12;98114.50;4992422;28;20089;-69
2023/09/07 00:22:01;;;;;;;0.10;0.10;;;;;;;15.96;72.02;98119.31;4993938;28;20057;-69
2023/09/07 00:24:29;;;;;;;0.13;0.13;;;;;;;16.01;72.22;98114.09;4991872;28;20043;-70
2023/09/07 00:26:57;;;;;;;0.13;0.13;;;;;;;16.09;71.56;98111.16;4992079;28;20444;-67
2023/09/07 00:29:24;;;;;;;0.10;0.10;;;;;;;15.98;71.89;98118.06;4985179;28;20053;-69
2023/09/07 00:31:53;;;;;;;0.20;0.20;;;;;;;15.99;71.54;98113.47;4967581;28;20129;-69
2023/09/07 00:34:21;;;;;;;0.08;0.08;;;;;;;15.92;71.78;98107.31;4969528;28;20042;-70
2023/09/07 00:36:49;;;;;;;0.10;0.10;;;;;;;15.95;71.27;98104.19;4992712;28;20722;-69
2023/09/07 00:39:17;;;;;;;0.03;0.03;;;;;;;15.95;71.67;98113.09;4983825;28;20042;-69
2023/09/07 00:41:44;;;;;;;0.13;0.13;;;;;;;15.66;72.22;98101.03;4980802;28;20061;-69
2023/09/07 00:44:12;;;;;;;0.15;0.15;;;;;;;15.63;72.57;98109.53;4978508;28;20061;-70
2023/09/07 00:46:40;;;;;;;0.03;0.03;;;;;;;15.57;72.92;98102.31;4983870;28;20057;-70
2023/09/07 00:49:09;;;;;;;0.22;0.22;;;;;;;15.53;72.93;98108.31;4967103;28;20047;-67
2023/09/07 00:51:37;;;;;;;0.03;0.03;;;;;;;15.51;73.14;98108.50;4991421;28;20414;-69
2023/09/07 00:54:05;;;;;;;0.17;0.17;;;;;;;15.48;73.02;98108.09;4981785;28;20058;-69
2023/09/07 00:56:33;;;;;;;0.10;0.10;;;;;;;15.45;72.97;98111.25;4965458;28;20046;-67
2023/09/07 00:59:01;;;;;;;0.03;0.03;;;;;;;15.42;72.86;98107.94;4989970;28;20046;-68
2023/09/07 01:01:31;;;;;;;0.10;0.10;;;;;;;15.39;72.82;98108.34;4983543;28;20070;-68
2023/09/07 01:03:59;;;;;;;0.13;0.13;;;;;;;15.52;72.36;98112.03;4973608;28;20073;-68
2023/09/07 01:06:31;;;;;;;0.10;0.10;;;;;;;15.27;73.13;98101.13;4974477;28;20133;-68
2023/09/07 01:09:03;;;;;;;0.13;0.13;;;;;;;15.47;72.78;98114.56;4980837;28;20035;-68
2023/09/07 01:11:37;;;;;;;0.13;0.13;;;;;;;15.23;73.15;98108.00;4977495;28;20043;-68
2023/09/07 01:14:05;;;;;;;0.10;0.10;;;;;;;15.21;73.32;98113.59;4983985;28;20053;-67
2023/09/07 01:16:34;;;;;;;0.13;0.13;;;;;;;15.17;73.39;98111.50;4969450;28;20410;-68
2023/09/07 01:19:04;;;;;;;0.10;0.10;;;;;;;15.19;73.12;98112.97;4968861;28;20042;-69
2023/09/07 01:21:35;;;;;;;0.22;0.22;;;;;;;14.98;74.07;98111.34;4992237;28;20042;-68
2023/09/07 01:24:05;;;;;;;0.13;0.13;;;;;;;14.96;74.04;98110.72;4986565;28;20069;-68
2023/09/07 01:26:33;;;;;;;0.17;0.17;;;;;;;14.96;74.15;98112.59;4988925;28;20042;-69
2023/09/07 01:29:01;;;;;;;0.13;0.13;;;;;;;15.00;74.06;98113.84;4968428;28;20143;-69
2023/09/07 01:31:29;;;;;;;0.03;0.03;;;;;;;15.04;73.79;98107.03;4984065;28;20057;-68
2023/09/07 01:33:57;;;;;;;0.05;0.05;;;;;;;14.92;73.93;98106.00;4992779;28;20412;-68
2023/09/07 01:36:25;;;;;;;0.10;0.10;;;;;;;14.82;74.40;98106.44;4968270;28;20042;-68
2023/09/07 01:38:54;;;;;;;0.10;0.10;;;;;;;14.77;74.34;98106.22;4985169;28;20042;-68
2023/09/07 01:41:22;;;;;;;0.15;0.15;;;;;;;14.62;74.63;98111.84;4974569;28;20489;-68
2023/09/07 01:43:50;;;;;;;0.20;0.20;;;;;;;14.56;74.76;98118.00;4985473;28;20502;-68
2023/09/07 01:46:19;;;;;;;0.03;0.03;;;;;;;14.53;74.60;98120.31;4965184;28;20046;-67
2023/09/07 01:48:46;;;;;;;0.20;0.20;;;;;;;14.50;74.53;98118.03;5001515;23;20026;-72
2023/09/07 01:51:14;;;;;;;0.20;0.20;;;;;;;14.50;74.68;98120.72;5031261;28;20087;-72
2023/09/07 01:53:43;;;;;;;0.13;0.13;;;;;;;14.45;74.92;98118.63;5009482;28;20080;-72
2023/09/07 01:56:12;;;;;;;0.20;0.20;;;;;;;14.57;74.44;98118.84;5029477;28;20038;-71
2023/09/07 01:58:40;;;;;;;0.13;0.13;;;;;;;14.43;75.08;98118.00;5004991;28;20420;-71
2023/09/07 02:01:21;;;;;;;0.03;0.03;;;;;;;14.31;75.73;98116.97;5007159;28;20493;-71
2023/09/07 02:03:49;;;;;;;0.20;0.20;;;;;;;14.33;75.69;98115.69;5003620;28;20092;-72
2023/09/07 02:06:17;;;;;;;0.30;0.30;;;;;;;14.35;75.68;98120.88;5026921;28;20087;-72
2023/09/07 02:08:44;;;;;;;0.13;0.13;;;;;;;14.21;75.97;98112.00;5017965;28;20037;-73
2023/09/07 02:11:14;;;;;;;0.40;0.40;;;;;;;14.25;75.72;98117.75;5013085;28;20532;-72
2023/09/07 02:13:42;;;;;;;0.13;0.13;;;;;;;14.32;75.22;98118.63;5002481;28;20536;-72
2023/09/07 02:16:10;;;;;;;0.17;0.17;;;;;;;14.28;75.24;98117.34;5023107;28;20050;-72
2023/09/07 02:18:39;;;;;;;0.25;0.25;;;;;;;14.25;75.37;98115.91;5008141;28;20050;-72
2023/09/07 02:21:07;;;;;;;0.13;0.13;;;;;;;14.19;75.32;98119.41;5024736;28;20042;-72
2023/09/07 02:23:35;;;;;;;0.20;0.20;;;;;;;14.35;74.59;98112.81;5018750;28;20137;-72
2023/09/07 02:26:03;;;;;;;0.20;0.20;;;;;;;14.18;75.15;98120.44;5017468;28;20033;-72
2023/09/07 02:28:34;;;;;;;0.20;0.20;;;;;;;14.21;75.04;98114.69;5011139;28;20065;-71
2023/09/07 02:31:03;;;;;;;0.20;0.20;;;;;;;14.22;74.88;98110.13;5026046;28;20469;-72
2023/09/07 02:33:31;;;;;;;0.28;0.28;;;;;;;14.17;74.94;98116.09;5012807;28;20104;-71
2023/09/07 02:36:00;;;;;;;0.13;0.13;;;;;;;14.02;75.30;98110.06;5000043;28;20050;-74
2023/09/07 02:38:27;;;;;;;0.22;0.22;;;;;;;13.95;75.44;98115.44;5001896;28;20488;-71
2023/09/07 02:40:56;;;;;;;0.20;0.20;;;;;;;13.83;75.81;98111.69;5028881;28;20037;-72
2023/09/07 02:43:24;;;;;;;0.08;0.08;;;;;;;13.84;75.62;98118.72;5018269;28;20056;-72
2023/09/07 02:45:53;;;;;;;0.13;0.13;;;;;;;13.73;76.01;98113.94;5019215;28;20068;-74
2023/09/07 02:48:23;;;;;;;0.22;0.22;;;;;;;13.59;76.33;98118.44;5002908;28;20048;-73
2023/09/07 02:50:50;;;;;;;0.10;0.10;;;;;;;13.58;76.28;98108.75;5006045;28;20549;-71
2023/09/07 02:53:21;;;;;;;0.13;0.13;;;;;;;13.52;76.75;98114.88;5002969;28;20084;-72
2023/09/07 02:55:49;;;;;;;0.20;0.20;;;;;;;13.55;76.71;98111.00;5012767;28;20041;-74
2023/09/07 02:58:17;;;;;;;0.20;0.20;;;;;;;13.57;76.80;98119.66;5021247;28;20050;-72
2023/09/07 03:00:46;;;;;;;0.13;0.13;;;;;;;13.62;76.75;98121.72;5006671;28;20049;-72
2023/09/07 03:03:19;;;;;;;0.10;0.10;;;;;;;13.60;76.86;98129.97;5005816;28;20052;-72
2023/09/07 03:05:47;;;;;;;0.10;0.10;;;;;;;13.46;77.54;98120.25;5003732;28;20049;-72
2023/09/07 03:08:16;;;;;;;0.15;0.15;;;;;;;13.51;77.29;98129.31;5018838;28;20050;-72
2023/09/07 03:10:44;;;;;;;0.22;0.22;;;;;;;13.58;77.17;98119.47;5009710;28;20065;-72
2023/09/07 03:13:12;;;;;;;0.13;0.13;;;;;;;13.67;77.07;98125.47;5007819;28;20049;-72
2023/09/07 03:15:40;;;;;;;0.30;0.30;;;;;;;13.68;76.95;98129.00;5010620;28;20046;-72
2023/09/07 03:18:12;;;;;;;0.13;0.13;;;;;;;13.71;76.71;98124.03;5011707;28;20567;-72
2023/09/07 03:20:42;;;;;;;0.20;0.20;;;;;;;13.60;77.01;98117.38;5017048;28;20073;-72
2023/09/07 03:23:11;;;;;;;0.03;0.03;;;;;;;13.75;75.95;98119.94;5012815;28;20038;-73
2023/09/07 03:25:38;;;;;;;0.03;0.03;;;;;;;13.61;76.38;98118.22;5030972;28;20064;-72
2023/09/07 03:28:06;;;;;;;0.15;0.15;;;;;;;13.60;76.40;98114.72;5017966;28;20052;-73
2023/09/07 03:30:36;;;;;;;0.13;0.13;;;;;;;13.65;76.22;98114.13;5006413;28;20188;-73
2023/09/07 03:33:05;;;;;;;0.15;0.15;;;;;;;13.76;75.73;98115.41;5003500;28;20523;-73
2023/09/07 03:35:33;;;;;;;0.10;0.10;;;;;;;13.61;75.56;98115.53;5015646;28;20056;-73
2023/09/07 03:38:02;;;;;;;0.30;0.30;;;;;;;13.60;75.58;98125.44;5026224;28;20042;-73
2023/09/07 03:40:30;;;;;;;0.17;0.17;;;;;;;13.37;75.95;98116.91;5010467;28;20050;-72
2023/09/07 03:42:58;;;;;;;0.25;0.25;;;;;;;13.32;76.47;98121.19;5012375;28;20451;-73
2023/09/07 03:45:27;;;;;;;0.10;0.10;;;;;;;13.28;76.21;98119.97;5001318;28;20061;-74
2023/09/07 03:47:54;;;;;;;0.30;0.30;;;;;;;13.27;76.24;98127.16;5029304;28;20057;-74
2023/09/07 03:50:22;;;;;;;0.13;0.13;;;;;;;13.35;75.93;98118.94;5002050;28;20042;-74
2023/09/07 03:52:50;;;;;;;0.20;0.20;;;;;;;13.38;75.88;98131.97;5012319;28;20104;-74
2023/09/07 03:55:19;;;;;;;0.13;0.13;;;;;;;13.39;75.75;98125.56;5005994;28;20188;-73
2023/09/07 03:57:49;;;;;;;0.13;0.13;;;;;;;13.37;75.79;98124.94;5007791;28;20041;-74
2023/09/07 04:00:18;;;;;;;0.22;0.22;;;;;;;13.33;75.68;98131.72;5009303;28;20041;-73
2023/09/07 04:02:48;;;;;;;0.20;0.20;;;;;;;13.31;75.84;98128.41;5027392;28;20554;-74
2023/09/07 04:05:16;;;;;;;0.30;0.30;;;;;;;13.23;75.79;98129.41;5017397;28;20072;-73
2023/09/07 04:07:44;;;;;;;0.13;0.13;;;;;;;13.15;76.45;98137.63;5009004;28;20108;-74
2023/09/07 04:10:11;;;;;;;0.13;0.13;;;;;;;13.20;76.21;98132.47;5019245;28;20046;-73
2023/09/07 04:12:41;;;;;;;0.30;0.30;;;;;;;13.38;75.69;98133.81;5027399;28;20045;-72
2023/09/07 04:15:10;;;;;;;0.22;0.22;;;;;;;13.25;75.86;98133.75;5032963;28;20396;-74
2023/09/07 04:17:40;;;;;;;0.10;0.10;;;;;;;13.16;76.34;98125.88;5015670;28;20136;-73
2023/09/07 04:20:10;;;;;;;0.30;0.30;;;;;;;13.06;76.74;98136.09;5029612;28;20049;-72
2023/09/07 04:22:38;;;;;;;0.20;0.20;;;;;;;13.06;77.11;98127.22;5017420;28;20476;-73
2023/09/07 04:25:06;;;;;;;0.13;0.13;;;;;;;13.07;76.59;98124.34;5005822;28;20053;-73
2023/09/07 04:27:34;;;;;;;0.20;0.20;;;;;;;12.94;77.25;98128.78;5007533;28;20053;-73
2023/09/07 04:30:08;;;;;;;0.13;0.13;;;;;;;12.81;77.79;98129.53;5008143;28;20116;-73
2023/09/07 04:32:37;;;;;;;0.20;0.20;;;;;;;12.89;77.67;98124.00;5029876;28;20064;-73
2023/09/07 04:35:07;;;;;;;0.25;0.25;;;;;;;13.01;77.07;98129.66;5005067;28;20053;-73
2023/09/07 04:37:34;;;;;;;0.13;0.13;;;;;;;13.00;76.84;98130.66;5028914;28;20042;-74
2023/09/07 04:40:04;;;;;;;0.15;0.15;;;;;;;12.99;76.52;98131.69;5009596;28;20054;-74
2023/09/07 04:42:32;;;;;;;0.22;0.22;;;;;;;13.02;76.51;98129.47;5013615;28;20046;-74
2023/09/07 04:44:59;;;;;;;0.13;0.13;;;;;;;13.01;76.58;98133.16;5004314;28;20054;-73
2023/09/07 04:47:29;;;;;;;0.20;0.20;;;;;;;13.03;76.49;98136.47;5007886;28;20046;-73
2023/09/07 04:49:57;;;;;;;0.03;0.03;;;;;;;12.98;76.34;98138.09;5008485;28;20045;-73
2023/09/07 04:52:25;;;;;;;0.22;0.22;;;;;;;12.80;76.76;98146.63;5012737;28;20144;-73
2023/09/07 04:54:52;;;;;;;0.22;0.22;;;;;;;12.76;76.96;98138.16;5011614;28;20083;-73
2023/09/07 04:57:20;;;;;;;0.20;0.20;;;;;;;12.73;76.83;98138.53;5018910;28;20065;-73
2023/09/07 04:59:48;;;;;;;0.13;0.13;;;;;;;12.66;77.21;98145.72;5010801;28;20041;-74
2023/09/07 05:02:17;;;;;;;0.28;0.28;;;;;;;12.74;77.36;98145.56;5015356;28;20045;-73
2023/09/07 05:04:46;;;;;;;0.35;0.35;;;;;;;12.84;76.54;98145.22;5024252;28;20041;-74
2023/09/07 05:07:13;;;;;;;0.22;0.22;;;;;;;12.69;76.69;98139.94;5030206;28;20076;-74
2023/09/07 05:09:41;;;;;;;0.32;0.32;;;;;;;12.63;77.51;98143.41;5005480;28;20096;-75
2023/09/07 05:12:10;;;;;;;0.20;0.20;;;;;;;12.73;77.14;98148.44;5028549;28;20048;-74
2023/09/07 05:14:38;;;;;;;0.25;0.25;;;;;;;12.85;76.37;98145.03;5004756;28;20034;-74
2023/09/07 05:17:06;;;;;;;0.32;0.32;;;;;;;12.78;77.60;98144.13;5014568;28;20051;-74
2023/09/07 05:19:34;;;;;;;0.32;0.32;;;;;;;12.81;77.78;98146.44;5003689;28;20128;-74
2023/09/07 05:22:03;;;;;;;0.22;0.22;;;;;;;12.83;77.77;98143.56;5009407;28;20057;-74
2023/09/07 05:24:31;;;;;;;0.28;0.28;;;;;;;12.85;78.22;98147.69;5025747;28;20125;-74
2023/09/07 05:26:59;;;;;;;0.22;0.22;;;;;;;12.78;78.74;98143.28;5031456;28;20132;-73
2023/09/07 05:29:26;;;;;;;0.20;0.20;;;;;;;12.76;78.62;98142.69;5000286;28;20157;-73
2023/09/07 05:31:54;;;;;;;0.20;0.20;;;;;;;12.88;78.10;98144.59;5010386;28;20045;-73
2023/09/07 05:34:22;;;;;;;0.25;0.25;;;;;;;12.83;78.37;98147.06;5005376;28;20496;-73
2023/09/07 05:36:49;;;;;;;0.22;0.22;;;;;;;12.87;78.28;98145.63;5025765;28;20209;-74
2023/09/07 05:39:18;;;;;;;0.22;0.22;;;;;;;13.07;77.61;98143.09;4995286;28;20100;-73
2023/09/07 05:41:47;;;;;;;0.10;0.10;;;;;;;13.04;78.01;98146.19;5007760;28;20522;-73
2023/09/07 05:44:14;;;;;;;0.20;0.20;;;;;;;13.09;77.82;98146.41;5002322;28;20081;-73
2023/09/07 05:46:43;;;;;;;0.13;0.13;;;;;;;13.15;77.93;98152.88;5005224;28;20125;-73
2023/09/07 05:49:10;;;;;;;0.13;0.13;;;;;;;13.29;77.57;98153.78;5008009;28;20136;-73
2023/09/07 05:51:38;;;;;;;0.13;0.13;;;;;;;13.31;77.68;98154.38;5028773;28;20046;-73
2023/09/07 05:54:06;;;;;;;0.20;0.20;;;;;;;13.37;77.06;98143.72;4996168;28;20045;-73
2023/09/07 05:56:35;;;;;;;0.13;0.13;;;;;;;13.43;77.21;98148.28;5002622;28;20049;-74
2023/09/07 05:59:03;;;;;;;0.22;0.22;;;;;;;13.43;77.20;98147.44;5008442;28;20128;-73
2023/09/07 06:01:31;;;;;;;0.10;0.10;;;;;;;13.48;77.00;98150.38;5013313;28;20052;-73
2023/09/07 06:03:59;;;;;;;0.30;0.30;;;;;;;13.53;76.77;98147.91;5029351;28;20373;-73
2023/09/07 06:06:28;;;;;;;0.22;0.22;;;;;;;13.70;76.47;98151.09;5026339;28;20058;-73
2023/09/07 06:08:55;;;;;;;0.10;0.10;;;;;;;13.74;76.06;98147.78;5010155;28;20678;-72
2023/09/07 06:11:23;;;;;;;0.20;0.20;;;;;;;13.81;75.78;98145.13;5031494;28;20040;-72
2023/09/07 06:13:52;;;;;;;0.03;0.03;;;;;;;13.88;75.62;98148.66;5008531;28;20045;-72
2023/09/07 06:16:20;;;;;;;0.25;0.25;;;;;;;13.92;75.71;98156.09;5024084;28;20042;-72
2023/09/07 06:18:48;;;;;;;0.22;0.22;;;;;;;14.00;75.85;98156.97;5018981;28;20087;-72
2023/09/07 06:21:15;;;;;;;0.22;0.22;;;;;;;14.12;75.43;98156.16;5003631;28;20152;-72
2023/09/07 06:23:43;;;;;;;0.13;0.13;;;;;;;14.17;75.05;98156.38;5028597;28;20040;-72
2023/09/07 06:26:11;;;;;;;0.22;0.22;;;;;;;14.25;75.10;98164.22;5025598;28;20029;-72
2023/09/07 06:28:38;;;;;;;0.15;0.15;;;;;;;14.29;75.17;98161.97;5003896;28;20042;-73
2023/09/07 06:31:08;;;;;;;0.10;0.10;;;;;;;14.38;74.93;98151.88;5002683;28;20519;-73
2023/09/07 06:33:35;;;;;;;0.22;0.22;;;;;;;14.39;75.99;98154.38;4999825;28;20535;-72
2023/09/07 06:36:03;;;;;;;0.13;0.13;;;;;;;14.58;75.70;98155.44;5027103;28;20763;-72
2023/09/07 06:38:32;;;;;;;0.10;0.10;;;;;;;14.67;75.54;98160.38;4993989;28;20134;-72
2023/09/07 06:41:00;;;;;;;0.30;0.30;;;;;;;14.75;75.60;98153.97;5007210;28;20046;-72
2023/09/07 06:43:30;;;;;;;0.20;0.20;;;;;;;14.73;75.35;98157.91;5003954;28;20045;-72
2023/09/07 06:46:03;;;;;;;0.05;0.05;;;;;;;14.79;75.13;98160.59;5008605;28;20680;-74
2023/09/07 06:48:32;;;;;;;0.20;0.20;;;;;;;14.94;75.23;98161.22;5004454;28;20061;-73
2023/09/07 06:51:03;;;;;;;0.17;0.17;;;;;;;15.03;74.85;98154.59;5028014;28;20531;-72
2023/09/07 06:53:32;;;;;;;0.10;0.10;;;;;;;15.20;74.63;98151.44;5007678;28;20053;-74
2023/09/07 06:56:21;;;;;;;0.10;0.10;;;;;;;15.22;74.29;98155.59;5010251;28;20128;-74
2023/09/07 06:58:49;;;;;;;0.20;0.20;;;;;;;15.32;74.29;98153.28;5011850;28;20038;-74
2023/09/07 07:01:17;;;;;;;0.13;0.13;;;;;;;15.43;73.91;98155.31;5009322;28;20465;-74
2023/09/07 07:03:46;;;;;;;0.20;0.20;;;;;;;15.57;74.03;98160.69;5032516;28;20033;-74
2023/09/07 07:06:14;;;;;;;0.10;0.10;;;;;;;15.66;73.31;98162.13;5023172;28;20116;-73
2023/09/07 07:08:42;;;;;;;0.22;0.22;;;;;;;15.71;73.52;98163.13;5015139;28;20167;-73
2023/09/07 07:11:09;;;;;;;0.22;0.22;;;;;;;15.81;72.94;98165.34;5018562;28;20558;-73
2023/09/07 07:13:37;;;;;;;0.10;0.10;;;;;;;15.90;72.56;98165.94;5032752;28;20044;-73
2023/09/07 07:16:05;;;;;;;0.10;0.10;;;;;;;16.01;72.43;98166.06;5025530;28;20065;-73
2023/09/07 07:18:39;;;;;;;0.15;0.15;;;;;;;16.08;72.25;98166.88;5005168;28;20049;-73
2023/09/07 07:21:22;;;;;;;0.10;0.10;;;;;;;16.10;72.22;98162.09;5010872;28;20041;-73
2023/09/07 07:23:50;;;;;;;0.10;0.10;;;;;;;16.25;71.92;98161.81;5008401;28;20505;-73
2023/09/07 07:26:18;;;;;;;0.13;0.13;;;;;;;16.39;71.52;98167.94;5014693;28;20045;-73
2023/09/07 07:28:46;;;;;;;0.10;0.10;;;;;;;16.51;71.46;98168.88;5006150;28;20065;-73
2023/09/07 07:31:19;;;;;;;0.10;0.10;;;;;;;16.67;71.17;98170.25;5012261;28;20099;-73
2023/09/07 07:33:48;;;;;;;0.10;0.10;;;;;;;16.77;70.31;98171.41;5025783;28;20463;-73
2023/09/07 07:36:16;;;;;;;0.10;0.10;;;;;;;16.87;70.05;98171.75;5011146;28;20069;-73
2023/09/07 07:38:45;;;;;;;0.10;0.10;;;;;;;17.02;69.89;98173.28;5006513;28;20612;-73
2023/09/07 07:41:13;;;;;;;0.20;0.20;;;;;;;17.13;69.18;98170.66;5011464;28;20040;-73
2023/09/07 07:43:41;;;;;;;0.15;0.15;;;;;;;17.26;69.12;98167.03;5011553;28;20034;-73
2023/09/07 07:46:09;;;;;;;0.20;0.20;;;;;;;17.36;68.04;98166.50;5010351;28;20412;-73
2023/09/07 07:48:38;;;;;;;0.03;0.03;;;;;;;17.48;68.11;98162.84;5006919;28;20047;-73
2023/09/07 07:51:06;;;;;;;0.10;0.10;;;;;;;17.59;67.82;98166.69;5031267;23;20611;-69
2023/09/07 07:53:39;;;;;;;0.13;0.13;;;;;;;17.69;67.81;98175.09;5010973;28;20057;-69
2023/09/07 07:56:15;;;;;;;0.20;0.20;;;;;;;17.81;67.93;98173.31;5028596;28;20120;-69
2023/09/07 07:58:44;;;;;;;0.17;0.17;;;;;;;17.93;67.77;98170.66;5002698;28;20053;-70
2023/09/07 08:01:17;;;;;;;0.15;0.15;;;;;;;18.08;67.96;98165.69;4993358;28;20049;-69
2023/09/07 08:03:49;;;;;;;0.20;0.10;;;;;;;18.20;66.75;98161.16;4988856;28;20538;-68
2023/09/07 08:06:17;;;;;;;0.10;0.10;;;;;;;18.33;66.06;98162.84;4986711;28;20049;-68
2023/09/07 08:08:47;;;;;;;0.10;0.10;;;;;;;18.46;66.14;98146.44;4989602;28;20049;-70
2023/09/07 08:11:21;;;;;;;0.13;0.13;;;;;;;18.62;65.96;98169.28;4987368;28;20066;-69
2023/09/07 08:13:49;;;;;;;0.10;0.10;;;;;;;18.74;65.77;98155.81;4991248;28;20417;-70
2023/09/07 08:16:18;;;;;;;0.13;0.13;;;;;;;18.85;64.99;98161.22;4986900;28;20112;-70
2023/09/07 08:18:46;;;;;;;0.10;0.10;;;;;;;18.96;64.61;98160.41;4988087;28;20047;-69
2023/09/07 08:21:16;;;;;;;0.10;0.10;;;;;;;19.11;64.49;98151.00;4986028;28;20065;-69
2023/09/07 08:23:44;;;;;;;0.10;0.10;;;;;;;19.25;63.50;98153.25;4990861;28;20042;-69
2023/09/07 08:26:14;;;;;;;0.10;0.10;;;;;;;19.39;63.71;98157.34;4991206;28;20031;-70
2023/09/07 08:28:46;;;;;;;0.13;0.13;;;;;;;19.53;63.01;98157.13;4990362;28;20053;-69
2023/09/07 08:31:20;;;;;;;0.03;0.03;;;;;;;19.62;63.39;98144.88;4986692;28;20058;-69
2023/09/07 08:33:51;;;;;;;0.15;0.15;;;;;;;19.75;63.78;98156.25;4990889;28;20141;-69
2023/09/07 08:36:22;;;;;;;0.20;0.20;;;;;;;19.93;62.48;98152.56;4989420;28;20177;-70
2023/09/07 08:38:53;;;;;;;0.13;0.13;;;;;;;20.04;61.70;98157.09;4989897;28;20089;-70
2023/09/07 08:41:21;;;;;;;0.03;0.03;;;;;;;20.18;61.62;98154.94;4986973;28;20057;-70
2023/09/07 08:43:54;;;;;;;0.10;0.10;;;;;;;20.33;60.75;98152.53;4988876;28;20675;-70
2023/09/07 08:46:23;;;;;;;0.10;0.10;;;;;;;20.50;59.96;98155.28;4987077;28;20042;-70
2023/09/07 08:48:51;;;;;;;0.10;0.10;;;;;;;20.65;61.81;98146.59;4989439;28;20045;-70
2023/09/07 08:51:20;;;;;;;0.10;0.10;;;;;;;20.81;60.72;98143.88;4994616;28;20497;-70
2023/09/07 08:53:49;;;;;;;0.13;0.13;;;;;;;20.98;58.48;98145.75;4987408;28;20043;-68
2023/09/07 08:56:17;;;;;;;0.10;0.10;;;;;;;21.13;57.22;98146.00;4986706;28;20421;-70
2023/09/07 08:58:49;;;;;;;0.10;0.10;;;;;;;21.25;58.47;98141.34;4990082;28;20046;-70
2023/09/07 09:01:18;;;;;;;0.10;0.10;;;;;;;21.41;58.97;98143.19;4989860;28;20410;-70
2023/09/07 09:03:46;;;;;;;0.10;0.10;;;;;;;21.57;58.05;98144.22;4988927;28;20035;-69
2023/09/07 09:06:16;;;;;;;0.10;0.10;;;;;;;21.77;58.37;98140.94;4987515;28;20038;-69
2023/09/07 09:08:44;;;;;;;0.10;0.10;;;;;;;21.97;55.91;98139.28;4983978;28;20124;-69
2023/09/07 09:11:12;;;;;;;0.08;0.08;;;;;;;22.14;54.54;98136.50;4986580;28;20112;-69
2023/09/07 09:13:40;;;;;;;0.13;0.13;;;;;;;22.26;55.31;98130.94;4985175;28;20043;-68
2023/09/07 09:16:08;;;;;;;0.03;0.03;;;;;;;22.40;53.52;98125.91;4988812;28;20096;-68
2023/09/07 09:18:39;;;;;;;0.10;0.10;;;;;;;22.46;53.72;98128.41;4984992;28;20126;-68
2023/09/07 09:21:07;;;;;;;0.13;0.13;;;;;;;22.55;54.50;98128.75;4987404;28;20051;-69
2023/09/07 09:23:36;;;;;;;0.10;0.10;;;;;;;22.64;52.64;98127.19;4980660;28;20558;-69
2023/09/07 09:26:05;;;;;;;0.10;0.10;;;;;;;22.69;53.66;98128.06;4994426;28;20034;-69
2023/09/07 09:28:33;;;;;;;0.10;0.10;;;;;;;22.78;52.59;98128.44;4990858;28;20042;-69
2023/09/07 09:31:03;;;;;;;0.03;0.03;;;;;;;22.87;52.46;98131.50;4988930;28;20061;-70
2023/09/07 09:33:31;;;;;;;0.13;0.13;;;;;;;23.00;52.54;98123.72;4988330;28;20073;-69
2023/09/07 09:36:00;;;;;;;0.00;0.00;;;;;;;23.11;52.09;98131.97;4988832;28;20046;-69
2023/09/07 09:38:29;;;;;;;0.13;0.13;;;;;;;23.18;51.66;98130.66;4991262;28;20058;-69
2023/09/07 09:40:57;;;;;;;0.13;0.13;;;;;;;23.25;52.15;98125.00;4993523;28;20453;-69
2023/09/07 09:43:27;;;;;;;0.03;0.03;;;;;;;23.35;52.24;98122.31;4986220;28;20066;-69
2023/09/07 09:45:54;;;;;;;0.00;0.00;;;;;;;23.41;50.46;98121.25;4985279;28;20497;-70
2023/09/07 09:48:23;;;;;;;0.10;0.10;;;;;;;23.48;51.61;98116.38;4981223;28;20042;-69
2023/09/07 09:50:51;;;;;;;0.10;0.10;;;;;;;23.53;52.14;98112.91;4984372;28;20101;-69
2023/09/07 09:53:22;;;;;;;0.03;0.03;;;;;;;23.62;52.01;98116.75;4986157;28;20064;-70
2023/09/07 09:55:52;;;;;;;0.10;0.10;;;;;;;23.71;50.75;98113.25;4988468;28;20044;-69
2023/09/07 09:58:20;;;;;;;0.00;0.00;;;;;;;23.80;50.71;98113.56;4986412;28;20101;-69
2023/09/07 10:00:50;;;;;;;0.05;0.05;;;;;;;23.74;49.90;98107.28;4990973;28;20050;-68
2023/09/07 10:03:20;;;;;;;0.00;0.00;;;;;;;23.86;50.69;98108.97;4985445;28;20129;-69
2023/09/07 10:05:48;;;;;;;0.10;0.10;;;;;;;23.91;49.84;98106.22;4990165;28;20177;-69
2023/09/07 10:08:16;;;;;;;0.00;0.00;;;;;;;23.96;49.32;98109.00;4989580;28;20034;-68
2023/09/07 10:10:48;;;;;;;0.10;0.10;;;;;;;24.09;50.26;98106.56;4981427;28;20047;-69
2023/09/07 10:13:16;;;;;;;0.00;0.00;;;;;;;24.18;50.67;98104.16;4989872;28;20043;-70
2023/09/07 10:15:44;;;;;;;0.00;0.00;;;;;;;24.17;49.40;98105.22;4992544;28;20113;-69
2023/09/07 10:18:13;;;;;;;0.00;0.00;;;;;;;24.22;50.01;98104.44;4989640;28;20046;-69
2023/09/07 10:20:51;;;;;;;0.00;0.00;;;;;;;24.29;49.15;98105.84;4986091;28;20061;-69
2023/09/07 10:23:19;;;;;;;0.03;0.03;;;;;;;24.38;48.52;98098.75;4985348;28;20050;-69
2023/09/07 10:25:55;;;;;;;0.10;0.10;;;;;;;24.54;48.35;98102.31;4988810;28;20048;-69
2023/09/07 10:28:23;;;;;;;0.00;0.00;;;;;;;24.72;47.65;98092.75;4993209;28;20097;-69
2023/09/07 10:31:03;;;;;;;0.10;0.10;;;;;;;24.86;47.87;98089.19;4994479;28;20054;-69
2023/09/07 10:33:31;;;;;;;0.00;0.00;;;;;;;25.08;47.23;98094.38;4994285;28;20046;-70
2023/09/07 10:36:00;;;;;;;0.03;0.03;;;;;;;25.28;46.94;98084.50;4994443;28;20046;-70
2023/09/07 10:38:27;;;;;;;0.20;0.20;;;;;;;25.44;46.29;98081.44;4996450;28;20509;-69
2023/09/07 10:40:58;;;;;;;0.03;0.03;;;;;;;25.59;45.37;98080.56;4995168;28;20122;-69
2023/09/07 10:43:27;;;;;;;0.03;0.03;;;;;;;25.78;45.66;98080.78;4993724;28;20049;-70
2023/09/07 10:45:55;;;;;;;0.03;0.03;;;;;;;25.89;44.79;98077.72;4990272;28;20050;-69
2023/09/07 10:48:24;;;;;;;0.05;0.05;;;;;;;25.99;44.36;98071.38;4985905;28;20097;-69
2023/09/07 10:50:52;;;;;;;0.03;0.03;;;;;;;26.12;43.32;98068.03;4990150;28;20038;-69
2023/09/07 10:53:28;;;;;;;0.00;0.00;;;;;;;26.27;42.99;98067.94;4988447;28;20121;-70
2023/09/07 10:55:58;;;;;;;0.00;0.00;;;;;;;26.36;43.15;98068.19;4987207;28;20565;-70
2023/09/07 10:58:27;;;;;;;0.00;0.00;;;;;;;26.55;43.05;98071.88;4990123;28;20110;-70
2023/09/07 11:00:57;;;;;;;0.00;0.00;;;;;;;26.64;43.06;98075.63;4987962;28;20521;-69
2023/09/07 11:03:26;;;;;;;0.00;0.00;;;;;;;26.83;42.37;98073.00;4993834;28;20505;-68
2023/09/07 11:05:55;;;;;;;0.00;0.00;;;;;;;26.85;41.26;98065.31;4993538;28;20071;-68
2023/09/07 11:08:23;;;;;;;0.03;0.03;;;;;;;27.09;41.11;98075.53;4984707;28;20088;-70
2023/09/07 11:10:51;;;;;;;0.00;0.00;;;;;;;27.23;40.68;98063.56;4987994;28;20047;-69
2023/09/07 11:13:20;;;;;;;0.00;0.00;;;;;;;27.38;39.97;98057.94;4994080;28;20122;-69
2023/09/07 11:15:47;;;;;;;0.00;0.00;;;;;;;27.38;39.97;98055.19;4988821;28;20093;-69
2023/09/07 11:18:20;;;;;;;0.00;0.00;;;;;;;27.49;40.33;98066.03;4987316;28;20046;-70
2023/09/07 11:20:48;;;;;;;0.00;0.00;;;;;;;27.68;40.05;98050.47;4987480;28;20411;-70
2023/09/07 11:23:17;;;;;;;0.00;0.00;;;;;;;27.94;40.00;98059.97;4987674;28;20049;-68
2023/09/07 11:25:45;;;;;;;0.00;0.00;;;;;;;28.13;37.80;98058.06;4995526;28;20053;-70
2023/09/07 11:28:12;;;;;;;0.03;0.03;;;;;;;28.33;36.55;98067.16;4993914;28;20066;-68
2023/09/07 11:30:51;;;;;;;0.00;0.00;;;;;;;28.51;36.94;98049.81;4992056;28;20056;-68
2023/09/07 11:33:19;;;;;;;0.00;0.00;;;;;;;28.27;37.44;98058.16;4987844;28;20050;-68
2023/09/07 11:35:46;;;;;;;0.03;0.03;;;;;;;28.39;38.04;98041.22;4992557;28;20047;-68
2023/09/07 11:38:15;;;;;;;0.00;0.00;;;;;;;28.68;37.93;98050.06;4992170;28;20121;-69
2023/09/07 11:40:44;;;;;;;0.00;0.00;;;;;;;28.92;36.85;98052.72;4989551;28;20038;-68
2023/09/07 11:43:13;;;;;;;0.00;0.00;;;;;;;29.08;36.14;98043.06;4991960;28;20074;-67